sensor_id;sensor_type;location;lat;lon;timestamp;P1;durP1;ratioP1;P2;durP2;ratioP2
3949;SDS011;53057;50.988;6.314;2022-12-18T00:02:08;48.38;;;19.55;;
3949;SDS011;53057;50.988;6.314;2022-12-18T00:04:35;36.22;;;13.90;;
3949;SDS011;53057;50.988;6.314;2022-12-18T00:07:01;35.45;;;16.30;;
3949;SDS011;53057;50.988;6.314;2022-12-18T00:09:29;27.13;;;14.20;;
3949;SDS011;53057;50.988;6.314;2022-12-18T00:12:05;28.88;;;12.85;;
3949;SDS011;53057;50.988;6.314;2022-12-18T00:14:41;41.67;;;14.38;;
3949;SDS011;53057;50.988;6.314;2022-12-18T00:17:08;22.15;;;9.80;;
3949;SDS011;53057;50.988;6.314;2022-12-18T00:19:40;22.63;;;11.38;;
3949;SDS011;53057;50.988;6.314;2022-12-18T00:22:06;13.02;;;7.90;;
3949;SDS011;53057;50.988;6.314;2022-12-18T00:24:33;23.85;;;10.00;;
3949;SDS011;53057;50.988;6.314;2022-12-18T00:26:59;22.65;;;9.95;;
3949;SDS011;53057;50.988;6.314;2022-12-18T00:29:26;29.27;;;11.45;;
3949;SDS011;53057;50.988;6.314;2022-12-18T00:31:53;24.83;;;13.27;;
3949;SDS011;53057;50.988;6.314;2022-12-18T00:34:20;28.70;;;12.85;;
3949;SDS011;53057;50.988;6.314;2022-12-18T00:36:47;34.13;;;16.42;;
3949;SDS011;53057;50.988;6.314;2022-12-18T00:39:13;41.47;;;15.77;;
3949;SDS011;53057;50.988;6.314;2022-12-18T00:41:43;38.78;;;16.98;;
3949;SDS011;53057;50.988;6.314;2022-12-18T00:44:30;31.88;;;16.48;;
3949;SDS011;53057;50.988;6.314;2022-12-18T00:46:56;38.97;;;17.98;;
3949;SDS011;53057;50.988;6.314;2022-12-18T00:49:23;21.98;;;9.40;;
3949;SDS011;53057;50.988;6.314;2022-12-18T00:51:50;11.85;;;5.00;;
3949;SDS011;53057;50.988;6.314;2022-12-18T00:54:16;31.63;;;14.18;;
3949;SDS011;53057;50.988;6.314;2022-12-18T00:56:44;19.83;;;10.48;;
3949;SDS011;53057;50.988;6.314;2022-12-18T00:59:16;30.95;;;14.07;;
3949;SDS011;53057;50.988;6.314;2022-12-18T01:01:42;26.88;;;14.80;;
3949;SDS011;53057;50.988;6.314;2022-12-18T01:04:09;35.00;;;13.50;;
3949;SDS011;53057;50.988;6.314;2022-12-18T01:06:36;18.88;;;9.38;;
3949;SDS011;53057;50.988;6.314;2022-12-18T01:09:03;28.55;;;12.05;;
3949;SDS011;53057;50.988;6.314;2022-12-18T01:11:29;19.85;;;11.80;;
3949;SDS011;53057;50.988;6.314;2022-12-18T01:13:56;20.00;;;9.20;;
3949;SDS011;53057;50.988;6.314;2022-12-18T01:16:24;12.40;;;7.95;;
3949;SDS011;53057;50.988;6.314;2022-12-18T01:18:51;24.83;;;8.45;;
3949;SDS011;53057;50.988;6.314;2022-12-18T01:21:19;38.63;;;16.35;;
3949;SDS011;53057;50.988;6.314;2022-12-18T01:23:46;51.97;;;18.85;;
3949;SDS011;53057;50.988;6.314;2022-12-18T01:26:14;34.70;;;15.77;;
3949;SDS011;53057;50.988;6.314;2022-12-18T01:29:17;16.77;;;7.38;;
3949;SDS011;53057;50.988;6.314;2022-12-18T01:31:44;19.27;;;10.43;;
3949;SDS011;53057;50.988;6.314;2022-12-18T01:34:10;13.52;;;7.07;;
3949;SDS011;53057;50.988;6.314;2022-12-18T01:36:37;36.08;;;12.95;;
3949;SDS011;53057;50.988;6.314;2022-12-18T01:39:10;25.42;;;12.57;;
3949;SDS011;53057;50.988;6.314;2022-12-18T01:41:41;19.23;;;10.73;;
3949;SDS011;53057;50.988;6.314;2022-12-18T01:47:31;15.75;;;5.47;;
3949;SDS011;53057;50.988;6.314;2022-12-18T01:49:59;23.08;;;11.63;;
3949;SDS011;53057;50.988;6.314;2022-12-18T01:52:28;33.22;;;15.27;;
3949;SDS011;53057;50.988;6.314;2022-12-18T01:54:55;4.90;;;4.47;;
3949;SDS011;53057;50.988;6.314;2022-12-18T01:57:22;21.80;;;10.48;;
3949;SDS011;53057;50.988;6.314;2022-12-18T01:59:50;34.95;;;18.65;;
3949;SDS011;53057;50.988;6.314;2022-12-18T02:02:19;38.90;;;15.18;;
3949;SDS011;53057;50.988;6.314;2022-12-18T02:04:46;33.42;;;15.18;;
3949;SDS011;53057;50.988;6.314;2022-12-18T02:07:29;33.35;;;15.93;;
3949;SDS011;53057;50.988;6.314;2022-12-18T02:12:30;30.60;;;14.27;;
3949;SDS011;53057;50.988;6.314;2022-12-18T02:17:36;20.98;;;11.77;;
3949;SDS011;53057;50.988;6.314;2022-12-18T02:20:24;18.30;;;9.07;;
3949;SDS011;53057;50.988;6.314;2022-12-18T02:28:22;31.73;;;14.55;;
3949;SDS011;53057;50.988;6.314;2022-12-18T02:30:51;11.98;;;6.68;;
3949;SDS011;53057;50.988;6.314;2022-12-18T02:33:20;18.27;;;8.35;;
3949;SDS011;53057;50.988;6.314;2022-12-18T02:35:47;6.97;;;4.72;;
3949;SDS011;53057;50.988;6.314;2022-12-18T02:38:15;21.63;;;8.75;;
3949;SDS011;53057;50.988;6.314;2022-12-18T02:40:44;40.05;;;7.53;;
3949;SDS011;53057;50.988;6.314;2022-12-18T02:43:15;32.08;;;10.75;;
3949;SDS011;53057;50.988;6.314;2022-12-18T02:45:52;13.23;;;4.47;;
3949;SDS011;53057;50.988;6.314;2022-12-18T02:48:22;29.33;;;10.98;;
3949;SDS011;53057;50.988;6.314;2022-12-18T02:51:25;38.60;;;10.10;;
3949;SDS011;53057;50.988;6.314;2022-12-18T02:53:38;14.75;;;7.03;;
3949;SDS011;53057;50.988;6.314;2022-12-18T02:58:41;10.07;;;6.38;;
3949;SDS011;53057;50.988;6.314;2022-12-18T03:03:59;22.38;;;9.45;;
3949;SDS011;53057;50.988;6.314;2022-12-18T03:06:32;23.13;;;11.63;;
3949;SDS011;53057;50.988;6.314;2022-12-18T03:09:06;17.27;;;8.65;;
3949;SDS011;53057;50.988;6.314;2022-12-18T03:11:53;8.02;;;6.55;;
3949;SDS011;53057;50.988;6.314;2022-12-18T03:14:39;17.70;;;7.07;;
3949;SDS011;53057;50.988;6.314;2022-12-18T03:17:09;20.02;;;8.57;;
3949;SDS011;53057;50.988;6.314;2022-12-18T03:19:36;17.45;;;8.25;;
3949;SDS011;53057;50.988;6.314;2022-12-18T03:22:05;12.73;;;4.65;;
3949;SDS011;53057;50.988;6.314;2022-12-18T03:24:42;12.93;;;7.57;;
3949;SDS011;53057;50.988;6.314;2022-12-18T03:27:11;21.13;;;10.73;;
3949;SDS011;53057;50.988;6.314;2022-12-18T03:29:40;12.05;;;8.05;;
3949;SDS011;53057;50.988;6.314;2022-12-18T03:32:16;18.52;;;9.43;;
3949;SDS011;53057;50.988;6.314;2022-12-18T03:34:43;26.17;;;13.63;;
3949;SDS011;53057;50.988;6.314;2022-12-18T03:37:14;22.67;;;12.57;;
3949;SDS011;53057;50.988;6.314;2022-12-18T03:39:41;27.33;;;11.68;;
3949;SDS011;53057;50.988;6.314;2022-12-18T03:47:45;11.93;;;7.28;;
3949;SDS011;53057;50.988;6.314;2022-12-18T03:50:26;7.78;;;4.28;;
3949;SDS011;53057;50.988;6.314;2022-12-18T03:52:57;15.25;;;6.70;;
3949;SDS011;53057;50.988;6.314;2022-12-18T03:55:26;14.57;;;7.43;;
3949;SDS011;53057;50.988;6.314;2022-12-18T03:57:59;19.98;;;9.98;;
3949;SDS011;53057;50.988;6.314;2022-12-18T04:00:33;27.02;;;13.23;;
3949;SDS011;53057;50.988;6.314;2022-12-18T04:03:06;30.60;;;11.40;;
3949;SDS011;53057;50.988;6.314;2022-12-18T04:05:40;33.00;;;13.75;;
3949;SDS011;53057;50.988;6.314;2022-12-18T04:08:07;29.00;;;13.45;;
3949;SDS011;53057;50.988;6.314;2022-12-18T04:10:37;38.00;;;16.05;;
3949;SDS011;53057;50.988;6.314;2022-12-18T04:13:04;27.88;;;13.65;;
3949;SDS011;53057;50.988;6.314;2022-12-18T04:15:31;33.92;;;15.73;;
3949;SDS011;53057;50.988;6.314;2022-12-18T04:18:00;34.97;;;15.07;;
3949;SDS011;53057;50.988;6.314;2022-12-18T04:20:34;27.95;;;15.93;;
3949;SDS011;53057;50.988;6.314;2022-12-18T04:23:02;39.55;;;18.23;;
3949;SDS011;53057;50.988;6.314;2022-12-18T04:25:29;23.45;;;15.35;;
3949;SDS011;53057;50.988;6.314;2022-12-18T04:28:05;26.10;;;13.35;;
3949;SDS011;53057;50.988;6.314;2022-12-18T04:30:34;25.30;;;14.52;;
3949;SDS011;53057;50.988;6.314;2022-12-18T04:33:01;31.48;;;16.00;;
3949;SDS011;53057;50.988;6.314;2022-12-18T04:35:29;29.58;;;15.93;;
3949;SDS011;53057;50.988;6.314;2022-12-18T04:37:56;41.60;;;17.35;;
3949;SDS011;53057;50.988;6.314;2022-12-18T04:40:23;38.45;;;17.65;;
3949;SDS011;53057;50.988;6.314;2022-12-18T04:42:50;39.53;;;17.20;;
3949;SDS011;53057;50.988;6.314;2022-12-18T04:45:17;30.80;;;15.05;;
3949;SDS011;53057;50.988;6.314;2022-12-18T04:47:44;31.92;;;17.42;;
3949;SDS011;53057;50.988;6.314;2022-12-18T04:50:10;31.63;;;15.98;;
3949;SDS011;53057;50.988;6.314;2022-12-18T04:52:37;37.28;;;18.60;;
3949;SDS011;53057;50.988;6.314;2022-12-18T04:55:04;34.33;;;19.35;;
3949;SDS011;53057;50.988;6.314;2022-12-18T04:57:30;32.92;;;16.67;;
3949;SDS011;53057;50.988;6.314;2022-12-18T04:59:57;36.13;;;16.63;;
3949;SDS011;53057;50.988;6.314;2022-12-18T05:02:24;35.50;;;18.00;;
3949;SDS011;53057;50.988;6.314;2022-12-18T05:04:50;30.48;;;17.65;;
3949;SDS011;53057;50.988;6.314;2022-12-18T05:07:17;34.05;;;18.10;;
3949;SDS011;53057;50.988;6.314;2022-12-18T05:09:47;34.22;;;16.88;;
3949;SDS011;53057;50.988;6.314;2022-12-18T05:12:13;27.10;;;11.77;;
3949;SDS011;53057;50.988;6.314;2022-12-18T05:14:40;30.83;;;12.23;;
3949;SDS011;53057;50.988;6.314;2022-12-18T05:17:07;30.73;;;16.77;;
3949;SDS011;53057;50.988;6.314;2022-12-18T05:19:34;28.30;;;14.80;;
3949;SDS011;53057;50.988;6.314;2022-12-18T05:22:00;35.13;;;15.93;;
3949;SDS011;53057;50.988;6.314;2022-12-18T05:24:27;35.25;;;15.77;;
3949;SDS011;53057;50.988;6.314;2022-12-18T05:26:54;28.25;;;14.65;;
3949;SDS011;53057;50.988;6.314;2022-12-18T05:29:20;37.05;;;14.70;;
3949;SDS011;53057;50.988;6.314;2022-12-18T05:31:47;22.90;;;12.20;;
3949;SDS011;53057;50.988;6.314;2022-12-18T05:34:14;33.72;;;11.73;;
3949;SDS011;53057;50.988;6.314;2022-12-18T05:36:40;19.35;;;8.80;;
3949;SDS011;53057;50.988;6.314;2022-12-18T05:39:08;30.70;;;10.45;;
3949;SDS011;53057;50.988;6.314;2022-12-18T05:41:35;37.80;;;16.15;;
3949;SDS011;53057;50.988;6.314;2022-12-18T05:44:01;21.85;;;13.82;;
3949;SDS011;53057;50.988;6.314;2022-12-18T05:46:28;37.25;;;14.73;;
3949;SDS011;53057;50.988;6.314;2022-12-18T05:48:58;12.38;;;7.25;;
3949;SDS011;53057;50.988;6.314;2022-12-18T05:51:25;35.83;;;13.18;;
3949;SDS011;53057;50.988;6.314;2022-12-18T05:53:51;31.88;;;13.05;;
3949;SDS011;53057;50.988;6.314;2022-12-18T05:56:19;37.90;;;13.48;;
3949;SDS011;53057;50.988;6.314;2022-12-18T05:58:46;28.98;;;14.63;;
3949;SDS011;53057;50.988;6.314;2022-12-18T06:01:14;26.38;;;13.73;;
3949;SDS011;53057;50.988;6.314;2022-12-18T06:03:41;26.63;;;14.75;;
3949;SDS011;53057;50.988;6.314;2022-12-18T06:06:12;33.15;;;13.50;;
3949;SDS011;53057;50.988;6.314;2022-12-18T06:08:39;36.70;;;17.15;;
3949;SDS011;53057;50.988;6.314;2022-12-18T06:11:11;39.00;;;17.00;;
3949;SDS011;53057;50.988;6.314;2022-12-18T06:13:38;38.55;;;19.70;;
3949;SDS011;53057;50.988;6.314;2022-12-18T06:16:05;34.13;;;14.10;;
3949;SDS011;53057;50.988;6.314;2022-12-18T06:18:32;33.00;;;17.05;;
3949;SDS011;53057;50.988;6.314;2022-12-18T06:20:59;39.67;;;18.30;;
3949;SDS011;53057;50.988;6.314;2022-12-18T06:23:26;36.20;;;19.83;;
3949;SDS011;53057;50.988;6.314;2022-12-18T06:25:53;34.90;;;18.23;;
3949;SDS011;53057;50.988;6.314;2022-12-18T06:28:20;26.70;;;14.18;;
3949;SDS011;53057;50.988;6.314;2022-12-18T06:30:47;37.47;;;13.57;;
3949;SDS011;53057;50.988;6.314;2022-12-18T06:33:25;48.03;;;17.73;;
3949;SDS011;53057;50.988;6.314;2022-12-18T06:35:52;39.67;;;16.65;;
3949;SDS011;53057;50.988;6.314;2022-12-18T06:38:26;47.25;;;22.35;;
3949;SDS011;53057;50.988;6.314;2022-12-18T06:40:52;45.55;;;21.25;;
3949;SDS011;53057;50.988;6.314;2022-12-18T06:43:19;43.92;;;20.23;;
3949;SDS011;53057;50.988;6.314;2022-12-18T06:45:45;39.17;;;17.67;;
3949;SDS011;53057;50.988;6.314;2022-12-18T06:48:16;36.50;;;17.85;;
3949;SDS011;53057;50.988;6.314;2022-12-18T06:50:42;38.90;;;19.15;;
3949;SDS011;53057;50.988;6.314;2022-12-18T06:53:09;32.75;;;17.05;;
3949;SDS011;53057;50.988;6.314;2022-12-18T06:55:36;43.45;;;19.30;;
3949;SDS011;53057;50.988;6.314;2022-12-18T06:58:03;36.50;;;15.95;;
3949;SDS011;53057;50.988;6.314;2022-12-18T07:00:29;22.20;;;11.20;;
3949;SDS011;53057;50.988;6.314;2022-12-18T07:02:56;38.40;;;19.10;;
3949;SDS011;53057;50.988;6.314;2022-12-18T07:05:22;35.88;;;17.73;;
3949;SDS011;53057;50.988;6.314;2022-12-18T07:07:49;54.20;;;20.80;;
3949;SDS011;53057;50.988;6.314;2022-12-18T07:10:15;36.90;;;14.10;;
3949;SDS011;53057;50.988;6.314;2022-12-18T07:12:42;41.03;;;18.85;;
3949;SDS011;53057;50.988;6.314;2022-12-18T07:15:09;35.92;;;17.42;;
3949;SDS011;53057;50.988;6.314;2022-12-18T07:17:35;35.13;;;15.65;;
3949;SDS011;53057;50.988;6.314;2022-12-18T07:20:02;38.38;;;16.85;;
3949;SDS011;53057;50.988;6.314;2022-12-18T07:22:29;53.15;;;20.13;;
3949;SDS011;53057;50.988;6.314;2022-12-18T07:24:55;33.40;;;14.88;;
3949;SDS011;53057;50.988;6.314;2022-12-18T07:27:22;22.80;;;12.48;;
3949;SDS011;53057;50.988;6.314;2022-12-18T07:29:49;41.55;;;18.38;;
3949;SDS011;53057;50.988;6.314;2022-12-18T07:32:16;40.17;;;17.42;;
3949;SDS011;53057;50.988;6.314;2022-12-18T07:34:43;39.20;;;17.65;;
3949;SDS011;53057;50.988;6.314;2022-12-18T07:37:10;39.33;;;20.48;;
3949;SDS011;53057;50.988;6.314;2022-12-18T07:39:36;38.63;;;17.85;;
3949;SDS011;53057;50.988;6.314;2022-12-18T07:42:03;28.45;;;15.65;;
3949;SDS011;53057;50.988;6.314;2022-12-18T07:44:48;41.88;;;19.80;;
3949;SDS011;53057;50.988;6.314;2022-12-18T07:47:15;51.10;;;24.42;;
3949;SDS011;53057;50.988;6.314;2022-12-18T07:49:41;50.35;;;20.83;;
3949;SDS011;53057;50.988;6.314;2022-12-18T07:52:08;38.63;;;19.85;;
3949;SDS011;53057;50.988;6.314;2022-12-18T07:54:36;40.45;;;18.70;;
3949;SDS011;53057;50.988;6.314;2022-12-18T07:57:02;44.72;;;20.27;;
3949;SDS011;53057;50.988;6.314;2022-12-18T07:59:29;38.95;;;18.88;;
3949;SDS011;53057;50.988;6.314;2022-12-18T08:01:55;32.00;;;17.80;;
3949;SDS011;53057;50.988;6.314;2022-12-18T08:04:22;39.92;;;21.70;;
3949;SDS011;53057;50.988;6.314;2022-12-18T08:06:49;43.80;;;24.80;;
3949;SDS011;53057;50.988;6.314;2022-12-18T08:09:15;47.40;;;24.58;;
3949;SDS011;53057;50.988;6.314;2022-12-18T08:11:42;44.85;;;25.52;;
3949;SDS011;53057;50.988;6.314;2022-12-18T08:14:09;40.60;;;24.23;;
3949;SDS011;53057;50.988;6.314;2022-12-18T08:16:39;41.08;;;22.60;;
3949;SDS011;53057;50.988;6.314;2022-12-18T08:19:06;35.45;;;19.65;;
3949;SDS011;53057;50.988;6.314;2022-12-18T08:21:32;33.10;;;17.98;;
3949;SDS011;53057;50.988;6.314;2022-12-18T08:24:00;35.58;;;19.30;;
3949;SDS011;53057;50.988;6.314;2022-12-18T08:26:28;42.38;;;21.70;;
3949;SDS011;53057;50.988;6.314;2022-12-18T08:28:55;43.35;;;24.33;;
3949;SDS011;53057;50.988;6.314;2022-12-18T08:31:22;46.25;;;26.40;;
3949;SDS011;53057;50.988;6.314;2022-12-18T08:33:50;43.40;;;24.48;;
3949;SDS011;53057;50.988;6.314;2022-12-18T08:36:17;37.28;;;19.42;;
3949;SDS011;53057;50.988;6.314;2022-12-18T08:38:44;35.95;;;21.48;;
3949;SDS011;53057;50.988;6.314;2022-12-18T08:41:11;38.80;;;20.00;;
3949;SDS011;53057;50.988;6.314;2022-12-18T08:43:38;32.47;;;17.25;;
3949;SDS011;53057;50.988;6.314;2022-12-18T08:46:24;35.60;;;22.80;;
3949;SDS011;53057;50.988;6.314;2022-12-18T08:48:52;43.60;;;22.52;;
3949;SDS011;53057;50.988;6.314;2022-12-18T08:51:19;47.63;;;25.15;;
3949;SDS011;53057;50.988;6.314;2022-12-18T08:53:46;38.72;;;20.38;;
3949;SDS011;53057;50.988;6.314;2022-12-18T08:56:13;33.25;;;21.55;;
3949;SDS011;53057;50.988;6.314;2022-12-18T08:58:40;40.67;;;21.63;;
3949;SDS011;53057;50.988;6.314;2022-12-18T09:01:08;36.72;;;20.17;;
3949;SDS011;53057;50.988;6.314;2022-12-18T09:03:35;38.70;;;22.10;;
3949;SDS011;53057;50.988;6.314;2022-12-18T09:06:03;42.40;;;21.20;;
3949;SDS011;53057;50.988;6.314;2022-12-18T09:08:30;51.08;;;22.00;;
3949;SDS011;53057;50.988;6.314;2022-12-18T09:10:57;39.33;;;21.10;;
3949;SDS011;53057;50.988;6.314;2022-12-18T09:13:23;41.03;;;20.52;;
3949;SDS011;53057;50.988;6.314;2022-12-18T09:15:51;45.88;;;25.38;;
3949;SDS011;53057;50.988;6.314;2022-12-18T09:18:19;40.47;;;21.63;;
3949;SDS011;53057;50.988;6.314;2022-12-18T09:20:46;40.90;;;20.85;;
3949;SDS011;53057;50.988;6.314;2022-12-18T09:23:13;41.20;;;19.88;;
3949;SDS011;53057;50.988;6.314;2022-12-18T09:25:40;38.55;;;20.20;;
3949;SDS011;53057;50.988;6.314;2022-12-18T09:28:13;52.40;;;21.33;;
3949;SDS011;53057;50.988;6.314;2022-12-18T09:30:41;38.80;;;20.65;;
3949;SDS011;53057;50.988;6.314;2022-12-18T09:33:08;48.67;;;24.35;;
3949;SDS011;53057;50.988;6.314;2022-12-18T09:35:36;45.85;;;22.27;;
3949;SDS011;53057;50.988;6.314;2022-12-18T09:38:03;35.10;;;20.67;;
3949;SDS011;53057;50.988;6.314;2022-12-18T09:40:33;46.13;;;21.63;;
3949;SDS011;53057;50.988;6.314;2022-12-18T09:43:02;42.30;;;18.98;;
3949;SDS011;53057;50.988;6.314;2022-12-18T09:45:30;36.35;;;21.08;;
3949;SDS011;53057;50.988;6.314;2022-12-18T09:47:59;40.03;;;20.73;;
3949;SDS011;53057;50.988;6.314;2022-12-18T09:52:54;37.67;;;21.25;;
3949;SDS011;53057;50.988;6.314;2022-12-18T09:57:53;37.60;;;19.10;;
3949;SDS011;53057;50.988;6.314;2022-12-18T10:00:23;37.30;;;21.15;;
3949;SDS011;53057;50.988;6.314;2022-12-18T10:02:50;42.08;;;24.45;;
3949;SDS011;53057;50.988;6.314;2022-12-18T10:06:06;43.83;;;24.20;;
3949;SDS011;53057;50.988;6.314;2022-12-18T10:08:06;30.33;;;19.40;;
3949;SDS011;53057;50.988;6.314;2022-12-18T10:10:36;34.05;;;17.67;;
3949;SDS011;53057;50.988;6.314;2022-12-18T10:15:49;28.75;;;15.75;;
3949;SDS011;53057;50.988;6.314;2022-12-18T10:18:31;39.05;;;19.58;;
3949;SDS011;53057;50.988;6.314;2022-12-18T10:21:28;36.50;;;18.35;;
3949;SDS011;53057;50.988;6.314;2022-12-18T10:24:08;35.53;;;15.75;;
3949;SDS011;53057;50.988;6.314;2022-12-18T10:26:40;34.20;;;21.88;;
3949;SDS011;53057;50.988;6.314;2022-12-18T10:29:12;36.13;;;18.08;;
3949;SDS011;53057;50.988;6.314;2022-12-18T10:31:39;34.80;;;17.10;;
3949;SDS011;53057;50.988;6.314;2022-12-18T10:34:10;37.03;;;21.40;;
3949;SDS011;53057;50.988;6.314;2022-12-18T10:36:37;32.97;;;19.95;;
3949;SDS011;53057;50.988;6.314;2022-12-18T10:39:14;40.85;;;22.63;;
3949;SDS011;53057;50.988;6.314;2022-12-18T10:41:41;51.53;;;21.80;;
3949;SDS011;53057;50.988;6.314;2022-12-18T10:44:18;43.22;;;25.40;;
3949;SDS011;53057;50.988;6.314;2022-12-18T10:46:46;36.75;;;20.85;;
3949;SDS011;53057;50.988;6.314;2022-12-18T10:49:21;38.28;;;20.92;;
3949;SDS011;53057;50.988;6.314;2022-12-18T10:51:49;38.92;;;23.80;;
3949;SDS011;53057;50.988;6.314;2022-12-18T10:54:17;36.05;;;18.45;;
3949;SDS011;53057;50.988;6.314;2022-12-18T10:56:48;38.28;;;23.27;;
3949;SDS011;53057;50.988;6.314;2022-12-18T10:59:16;36.45;;;18.70;;
3949;SDS011;53057;50.988;6.314;2022-12-18T11:01:53;48.92;;;22.92;;
3949;SDS011;53057;50.988;6.314;2022-12-18T11:04:24;43.33;;;21.65;;
3949;SDS011;53057;50.988;6.314;2022-12-18T11:09:25;36.28;;;20.73;;
3949;SDS011;53057;50.988;6.314;2022-12-18T11:11:53;34.47;;;18.00;;
3949;SDS011;53057;50.988;6.314;2022-12-18T11:14:21;34.72;;;17.10;;
3949;SDS011;53057;50.988;6.314;2022-12-18T11:16:49;50.70;;;25.33;;
3949;SDS011;53057;50.988;6.314;2022-12-18T11:19:37;38.47;;;23.98;;
3949;SDS011;53057;50.988;6.314;2022-12-18T11:22:17;42.35;;;22.33;;
3949;SDS011;53057;50.988;6.314;2022-12-18T11:24:51;44.67;;;25.02;;
3949;SDS011;53057;50.988;6.314;2022-12-18T11:27:39;42.28;;;22.85;;
3949;SDS011;53057;50.988;6.314;2022-12-18T11:30:22;47.42;;;24.67;;
3949;SDS011;53057;50.988;6.314;2022-12-18T11:32:51;45.92;;;23.73;;
3949;SDS011;53057;50.988;6.314;2022-12-18T11:36:04;36.22;;;18.08;;
3949;SDS011;53057;50.988;6.314;2022-12-18T11:38:20;34.03;;;18.27;;
3949;SDS011;53057;50.988;6.314;2022-12-18T11:41:13;36.03;;;21.65;;
3949;SDS011;53057;50.988;6.314;2022-12-18T11:43:40;35.22;;;21.83;;
3949;SDS011;53057;50.988;6.314;2022-12-18T11:46:10;36.53;;;20.50;;
3949;SDS011;53057;50.988;6.314;2022-12-18T11:48:49;38.60;;;23.52;;
3949;SDS011;53057;50.988;6.314;2022-12-18T11:51:20;40.10;;;20.75;;
3949;SDS011;53057;50.988;6.314;2022-12-18T11:53:52;42.28;;;23.85;;
3949;SDS011;53057;50.988;6.314;2022-12-18T11:56:27;41.75;;;18.33;;
3949;SDS011;53057;50.988;6.314;2022-12-18T12:09:45;42.28;;;22.15;;
3949;SDS011;53057;50.988;6.314;2022-12-18T12:12:21;49.08;;;22.52;;
3949;SDS011;53057;50.988;6.314;2022-12-18T12:15:26;29.90;;;16.85;;
3949;SDS011;53057;50.988;6.314;2022-12-18T12:17:54;53.97;;;24.75;;
3949;SDS011;53057;50.988;6.314;2022-12-18T12:23:06;33.88;;;18.50;;
3949;SDS011;53057;50.988;6.314;2022-12-18T12:31:14;43.13;;;23.63;;
3949;SDS011;53057;50.988;6.314;2022-12-18T12:36:30;38.78;;;17.52;;
3949;SDS011;53057;50.988;6.314;2022-12-18T12:39:03;43.15;;;21.48;;
3949;SDS011;53057;50.988;6.314;2022-12-18T12:41:32;37.78;;;18.63;;
3949;SDS011;53057;50.988;6.314;2022-12-18T12:44:26;42.78;;;21.00;;
3949;SDS011;53057;50.988;6.314;2022-12-18T12:46:56;38.40;;;22.20;;
3949;SDS011;53057;50.988;6.314;2022-12-18T12:49:26;59.22;;;25.65;;
3949;SDS011;53057;50.988;6.314;2022-12-18T12:52:04;50.60;;;26.50;;
3949;SDS011;53057;50.988;6.314;2022-12-18T12:54:32;56.20;;;26.98;;
3949;SDS011;53057;50.988;6.314;2022-12-18T12:59:51;45.60;;;26.33;;
3949;SDS011;53057;50.988;6.314;2022-12-18T13:05:11;38.15;;;22.27;;
3949;SDS011;53057;50.988;6.314;2022-12-18T13:07:46;46.72;;;24.85;;
3949;SDS011;53057;50.988;6.314;2022-12-18T13:18:17;41.15;;;22.95;;
3949;SDS011;53057;50.988;6.314;2022-12-18T13:23:25;47.42;;;22.42;;
3949;SDS011;53057;50.988;6.314;2022-12-18T13:31:09;48.03;;;26.70;;
3949;SDS011;53057;50.988;6.314;2022-12-18T13:33:43;46.17;;;24.58;;
3949;SDS011;53057;50.988;6.314;2022-12-18T13:36:31;41.42;;;21.92;;
3949;SDS011;53057;50.988;6.314;2022-12-18T13:39:15;54.13;;;26.13;;
3949;SDS011;53057;50.988;6.314;2022-12-18T13:44:33;56.60;;;25.05;;
3949;SDS011;53057;50.988;6.314;2022-12-18T13:47:26;44.67;;;23.10;;
3949;SDS011;53057;50.988;6.314;2022-12-18T13:49:54;38.95;;;22.55;;
3949;SDS011;53057;50.988;6.314;2022-12-18T13:52:22;47.42;;;27.25;;
3949;SDS011;53057;50.988;6.314;2022-12-18T13:54:53;46.05;;;26.70;;
3949;SDS011;53057;50.988;6.314;2022-12-18T13:57:25;46.25;;;25.50;;
3949;SDS011;53057;50.988;6.314;2022-12-18T13:59:52;54.25;;;26.70;;
3949;SDS011;53057;50.988;6.314;2022-12-18T14:02:23;47.83;;;24.02;;
3949;SDS011;53057;50.988;6.314;2022-12-18T14:04:51;52.30;;;28.30;;
3949;SDS011;53057;50.988;6.314;2022-12-18T14:07:19;43.22;;;24.77;;
3949;SDS011;53057;50.988;6.314;2022-12-18T14:09:47;41.03;;;21.85;;
3949;SDS011;53057;50.988;6.314;2022-12-18T14:12:24;40.47;;;23.60;;
3949;SDS011;53057;50.988;6.314;2022-12-18T14:15:17;45.38;;;25.67;;
3949;SDS011;53057;50.988;6.314;2022-12-18T14:17:47;41.88;;;24.50;;
3949;SDS011;53057;50.988;6.314;2022-12-18T14:20:14;59.85;;;23.77;;
3949;SDS011;53057;50.988;6.314;2022-12-18T14:22:45;46.72;;;23.85;;
3949;SDS011;53057;50.988;6.314;2022-12-18T14:27:47;31.85;;;17.88;;
3949;SDS011;53057;50.988;6.314;2022-12-18T14:30:31;43.13;;;21.15;;
3949;SDS011;53057;50.988;6.314;2022-12-18T14:35:27;43.58;;;17.55;;
3949;SDS011;53057;50.988;6.314;2022-12-18T14:38:08;38.83;;;21.42;;
3949;SDS011;53057;50.988;6.314;2022-12-18T14:40:35;46.05;;;22.85;;
3949;SDS011;53057;50.988;6.314;2022-12-18T14:43:02;41.08;;;21.80;;
3949;SDS011;53057;50.988;6.314;2022-12-18T14:45:35;31.77;;;13.55;;
3949;SDS011;53057;50.988;6.314;2022-12-18T14:48:09;35.53;;;18.58;;
3949;SDS011;53057;50.988;6.314;2022-12-18T14:50:40;48.88;;;18.33;;
3949;SDS011;53057;50.988;6.314;2022-12-18T14:53:20;33.03;;;13.43;;
3949;SDS011;53057;50.988;6.314;2022-12-18T14:55:48;27.48;;;13.88;;
3949;SDS011;53057;50.988;6.314;2022-12-18T14:58:15;48.38;;;24.15;;
3949;SDS011;53057;50.988;6.314;2022-12-18T15:00:42;38.85;;;17.60;;
3949;SDS011;53057;50.988;6.314;2022-12-18T15:03:09;19.95;;;8.90;;
3949;SDS011;53057;50.988;6.314;2022-12-18T15:05:44;44.60;;;17.25;;
3949;SDS011;53057;50.988;6.314;2022-12-18T15:08:26;44.55;;;19.08;;
3949;SDS011;53057;50.988;6.314;2022-12-18T15:10:54;10.85;;;7.13;;
3949;SDS011;53057;50.988;6.314;2022-12-18T15:13:21;22.90;;;11.43;;
3949;SDS011;53057;50.988;6.314;2022-12-18T15:15:49;21.38;;;11.40;;
3949;SDS011;53057;50.988;6.314;2022-12-18T15:18:31;20.67;;;9.60;;
3949;SDS011;53057;50.988;6.314;2022-12-18T15:21:00;16.30;;;7.45;;
3949;SDS011;53057;50.988;6.314;2022-12-18T15:23:55;28.80;;;14.48;;
3949;SDS011;53057;50.988;6.314;2022-12-18T15:26:21;29.75;;;10.20;;
3949;SDS011;53057;50.988;6.314;2022-12-18T15:28:49;28.80;;;11.60;;
3949;SDS011;53057;50.988;6.314;2022-12-18T15:33:44;41.10;;;8.85;;
3949;SDS011;53057;50.988;6.314;2022-12-18T15:36:13;41.28;;;15.40;;
3949;SDS011;53057;50.988;6.314;2022-12-18T15:38:40;19.55;;;7.68;;
3949;SDS011;53057;50.988;6.314;2022-12-18T15:41:14;37.22;;;16.20;;
3949;SDS011;53057;50.988;6.314;2022-12-18T15:43:47;14.98;;;8.98;;
3949;SDS011;53057;50.988;6.314;2022-12-18T15:46:15;16.13;;;9.88;;
3949;SDS011;53057;50.988;6.314;2022-12-18T15:48:43;12.80;;;5.93;;
3949;SDS011;53057;50.988;6.314;2022-12-18T15:51:18;18.15;;;11.40;;
3949;SDS011;53057;50.988;6.314;2022-12-18T15:53:47;22.77;;;9.80;;
3949;SDS011;53057;50.988;6.314;2022-12-18T15:56:14;27.15;;;10.25;;
3949;SDS011;53057;50.988;6.314;2022-12-18T15:59:01;21.60;;;10.75;;
3949;SDS011;53057;50.988;6.314;2022-12-18T16:01:29;25.50;;;8.85;;
3949;SDS011;53057;50.988;6.314;2022-12-18T16:03:57;39.75;;;12.93;;
3949;SDS011;53057;50.988;6.314;2022-12-18T16:06:24;15.88;;;8.85;;
3949;SDS011;53057;50.988;6.314;2022-12-18T16:08:51;31.20;;;10.75;;
3949;SDS011;53057;50.988;6.314;2022-12-18T16:11:24;22.08;;;10.45;;
3949;SDS011;53057;50.988;6.314;2022-12-18T16:14:18;21.17;;;11.07;;
3949;SDS011;53057;50.988;6.314;2022-12-18T16:16:46;22.80;;;8.70;;
3949;SDS011;53057;50.988;6.314;2022-12-18T16:19:13;8.40;;;5.05;;
3949;SDS011;53057;50.988;6.314;2022-12-18T16:21:40;16.50;;;8.68;;
3949;SDS011;53057;50.988;6.314;2022-12-18T16:24:50;27.17;;;7.40;;